Time;durP1;ratioP1;P1;durP2;ratioP2;P2;SDS_P1;SDS_P2;PMS_P1;PMS_P2;Temp;Humidity;BMP_temperature;BMP_pressure;BME280_temperature;BME280_humidity;BME280_pressure;Samples;Min_cycle;Max_cycle;Signal;HPM_P1;HPM_P2
2024/03/30 00:00:14;;;;;;;23.70;18.05;;;;;;;7.90;88.96;98535.25;2470650;29;20039;-82
2024/03/30 00:01:27;;;;;;;35.08;21.60;;;;;;;7.85;89.29;98538.00;2478057;29;20035;-83
2024/03/30 00:02:41;;;;;;;31.83;19.60;;;;;;;7.84;89.11;98531.09;2458417;29;20408;-82
2024/03/30 00:03:54;;;;;;;41.83;21.88;;;;;;;7.82;89.21;98532.91;2459306;29;20021;-82
2024/03/30 00:05:08;;;;;;;34.15;21.67;;;;;;;7.80;89.25;98529.50;2460973;29;20685;-83
2024/03/30 00:06:21;;;;;;;34.08;20.98;;;;;;;7.78;89.35;98527.84;2462001;29;20036;-82
2024/03/30 00:07:40;;;;;;;36.92;21.10;;;;;;;7.76;89.30;98512.31;2452582;29;20473;-81
2024/03/30 00:08:54;;;;;;;38.15;23.10;;;;;;;7.75;89.31;98512.38;2454884;28;20111;-81
2024/03/30 00:10:08;;;;;;;35.38;21.77;;;;;;;7.75;89.41;98512.38;2464129;29;20394;-83
2024/03/30 00:11:21;;;;;;;37.20;22.20;;;;;;;7.75;89.58;98499.38;2468948;29;20113;-83
2024/03/30 00:12:35;;;;;;;39.53;23.77;;;;;;;7.75;89.42;98502.81;2469213;29;20032;-84
2024/03/30 00:13:48;;;;;;;38.88;23.92;;;;;;;7.77;89.49;98514.03;2468606;29;20034;-83
2024/03/30 00:15:02;;;;;;;40.20;23.70;;;;;;;7.77;89.48;98519.22;2459124;29;20031;-83
2024/03/30 00:16:15;;;;;;;37.25;23.67;;;;;;;7.79;89.64;98516.56;2463724;29;20032;-83
2024/03/30 00:17:28;;;;;;;37.22;24.17;;;;;;;7.82;89.51;98521.63;2475871;28;20039;-83
2024/03/30 00:18:43;;;;;;;36.50;22.38;;;;;;;7.81;89.61;98518.19;2483959;29;20777;-84
2024/03/30 00:19:56;;;;;;;38.50;21.00;;;;;;;7.82;89.64;98517.31;2469817;29;20036;-82
2024/03/30 00:21:14;;;;;;;36.47;22.27;;;;;;;7.84;89.79;98512.06;2460893;28;20426;-82
2024/03/30 00:22:27;;;;;;;31.77;21.05;;;;;;;7.84;89.95;98510.31;2464282;29;20041;-82
2024/03/30 00:23:41;;;;;;;31.90;20.42;;;;;;;7.85;89.73;98501.63;2468749;29;20477;-83
2024/03/30 00:24:54;;;;;;;29.52;20.85;;;;;;;7.86;89.80;98500.72;2474442;29;20501;-82
2024/03/30 00:26:08;;;;;;;31.58;20.02;;;;;;;7.86;89.63;98497.28;2473729;29;20032;-82
2024/03/30 00:27:21;;;;;;;47.30;26.75;;;;;;;7.89;89.90;98509.31;2474480;29;20477;-83
2024/03/30 00:28:35;;;;;;;41.45;25.85;;;;;;;7.90;89.95;98503.22;2482366;28;20115;-83
2024/03/30 00:29:48;;;;;;;41.28;24.55;;;;;;;7.92;89.86;98499.69;2474604;29;20031;-82
2024/03/30 00:31:02;;;;;;;44.03;25.30;;;;;;;7.92;89.83;98502.28;2477648;28;20496;-82
2024/03/30 00:32:15;;;;;;;48.20;26.48;;;;;;;7.95;89.74;98493.53;2482290;28;20559;-82
2024/03/30 00:33:28;;;;;;;42.13;25.40;;;;;;;7.95;89.77;98499.59;2458488;29;20102;-82
2024/03/30 00:34:41;;;;;;;41.70;25.70;;;;;;;7.99;89.83;98493.38;2460797;28;20037;-82
2024/03/30 00:35:56;;;;;;;50.40;27.67;;;;;;;8.01;89.77;98491.59;2473893;29;20060;-83
2024/03/30 00:37:09;;;;;;;41.45;25.17;;;;;;;8.04;89.86;98503.63;2458475;29;20407;-81
2024/03/30 00:38:23;;;;;;;41.67;24.08;;;;;;;8.05;89.86;98502.72;2465383;28;20063;-82
2024/03/30 00:39:36;;;;;;;42.22;25.67;;;;;;;8.09;89.98;98504.34;2466599;29;20032;-83
2024/03/30 00:40:49;;;;;;;54.20;27.98;;;;;;;8.11;89.98;98506.91;2451855;29;20031;-82
2024/03/30 00:42:03;;;;;;;45.45;24.67;;;;;;;8.11;89.95;98504.28;2464058;29;20042;-83
2024/03/30 00:43:16;;;;;;;51.05;24.02;;;;;;;8.11;89.87;98502.53;2479936;28;20027;-83
2024/03/30 00:44:32;;;;;;;58.75;28.63;;;;;;;8.14;89.90;98491.19;2470165;29;20496;-82
2024/03/30 00:45:45;;;;;;;95.72;38.03;;;;;;;8.15;90.07;98488.53;2459720;28;20021;-82
2024/03/30 00:46:58;;;;;;;84.88;34.22;;;;;;;8.17;90.06;98484.13;2468309;29;20079;-81
2024/03/30 00:48:12;;;;;;;67.32;29.67;;;;;;;8.20;89.97;98485.78;2467730;28;20028;-82
2024/03/30 00:49:25;;;;;;;58.40;27.25;;;;;;;8.20;90.07;98489.22;2464480;29;20021;-83
2024/03/30 00:50:38;;;;;;;54.20;26.63;;;;;;;8.23;90.03;98480.47;2460223;29;20629;-83
2024/03/30 00:51:52;;;;;;;61.13;29.80;;;;;;;8.25;89.86;98476.94;2470762;29;20413;-83
2024/03/30 00:53:05;;;;;;;60.40;29.85;;;;;;;8.27;89.92;98476.88;2483030;29;20031;-83
2024/03/30 00:54:18;;;;;;;61.80;29.40;;;;;;;8.27;89.89;98477.72;2477108;29;20441;-83
2024/03/30 00:55:32;;;;;;;156.52;47.10;;;;;;;8.30;89.89;98474.19;2473386;29;20062;-84
2024/03/30 00:56:45;;;;;;;110.78;41.38;;;;;;;8.32;90.13;98474.97;2467945;28;20044;-83
2024/03/30 00:57:58;;;;;;;84.70;36.80;;;;;;;8.34;90.12;98467.13;2457273;29;20053;-84
2024/03/30 00:59:11;;;;;;;69.20;32.50;;;;;;;8.36;90.20;98475.72;2467154;29;20036;-83
2024/03/30 01:00:27;;;;;;;70.88;28.58;;;;;;;8.37;90.05;98482.63;2476503;28;20125;-83
2024/03/30 01:01:40;;;;;;;86.82;32.53;;;;;;;8.36;89.88;98471.34;2469457;28;20028;-83
2024/03/30 01:02:53;;;;;;;67.10;31.42;;;;;;;8.36;89.69;98481.75;2460717;29;20024;-84
2024/03/30 01:04:07;;;;;;;125.53;38.65;;;;;;;8.37;89.77;98480.03;2468776;29;20028;-84
2024/03/30 01:05:20;;;;;;;109.22;39.35;;;;;;;8.36;89.92;98480.91;2457635;28;20063;-84
2024/03/30 01:06:33;;;;;;;89.53;39.22;;;;;;;8.38;89.79;98473.91;2456912;28;20032;-83
2024/03/30 01:07:48;;;;;;;96.95;33.40;;;;;;;8.39;89.79;98473.00;2467701;29;20032;-84
2024/03/30 01:09:02;;;;;;;93.75;37.53;;;;;;;8.41;89.83;98473.84;2467285;29;20028;-84
2024/03/30 01:10:16;;;;;;;116.95;38.03;;;;;;;8.43;89.98;98470.28;2473181;28;20035;-84
2024/03/30 01:11:29;;;;;;;132.63;42.63;;;;;;;8.45;90.12;98470.25;2473375;28;20072;-83
2024/03/30 01:12:43;;;;;;;144.57;39.72;;;;;;;8.46;90.17;98471.94;2473807;29;20032;-82
2024/03/30 01:13:57;;;;;;;145.55;40.97;;;;;;;8.47;90.05;98461.50;2457232;28;20037;-84
2024/03/30 01:15:10;;;;;;;290.30;53.42;;;;;;;8.49;90.05;98467.50;2458169;29;20047;-84
2024/03/30 01:16:24;;;;;;;253.68;52.35;;;;;;;8.52;90.23;98466.53;2464635;28;20106;-83
2024/03/30 01:17:37;;;;;;;121.15;40.40;;;;;;;8.54;90.15;98463.84;2473423;29;20693;-82
2024/03/30 01:18:51;;;;;;;159.60;45.05;;;;;;;8.56;89.94;98460.31;2489056;29;20396;-83
2024/03/30 01:20:05;;;;;;;147.52;45.10;;;;;;;8.57;90.07;98464.63;2480526;28;20119;-83
2024/03/30 01:21:19;;;;;;;104.00;40.03;;;;;;;8.59;89.85;98470.59;2464932;29;20473;-83
2024/03/30 01:22:37;;;;;;;115.45;41.30;;;;;;;8.61;89.96;98457.53;2456447;29;20055;-83
2024/03/30 01:23:51;;;;;;;149.77;44.03;;;;;;;8.62;89.93;98465.31;2469355;29;20050;-83
2024/03/30 01:25:06;;;;;;;147.55;44.35;;;;;;;8.61;89.91;98455.78;2457819;29;20412;-83
2024/03/30 01:26:19;;;;;;;126.85;41.08;;;;;;;8.62;90.17;98465.31;2461214;28;20036;-83
2024/03/30 01:27:33;;;;;;;187.45;45.88;;;;;;;8.62;89.87;98451.44;2485065;28;20483;-83
2024/03/30 01:28:46;;;;;;;163.00;45.58;;;;;;;8.62;89.90;98454.03;2481628;28;20028;-82
2024/03/30 01:30:04;;;;;;;196.60;47.30;;;;;;;8.63;89.86;98453.16;2472796;29;20067;-81
2024/03/30 01:31:18;;;;;;;116.35;39.67;;;;;;;8.63;90.01;98454.00;2467864;29;20032;-82
2024/03/30 01:32:36;;;;;;;222.38;53.85;;;;;;;8.64;89.85;98447.88;2471286;28;20143;-81
2024/03/30 01:33:49;;;;;;;206.75;47.05;;;;;;;8.66;90.15;98453.03;2451294;29;20459;-81
2024/03/30 01:35:03;;;;;;;125.30;41.65;;;;;;;8.65;89.95;98447.00;2467285;29;20023;-82
2024/03/30 01:36:17;;;;;;;178.20;47.75;;;;;;;8.69;89.95;98442.50;2463821;29;20051;-80
2024/03/30 01:37:30;;;;;;;140.43;38.90;;;;;;;8.69;90.04;98448.56;2461925;28;20074;-81
2024/03/30 01:38:43;;;;;;;128.00;39.08;;;;;;;8.70;90.30;98442.47;2466531;29;20060;-82
2024/03/30 01:39:57;;;;;;;185.52;46.05;;;;;;;8.71;89.91;98454.56;2466159;29;20032;-81
2024/03/30 01:41:10;;;;;;;196.40;46.28;;;;;;;8.71;90.01;98451.94;2481572;29;20037;-82
2024/03/30 01:42:27;;;;;;;154.48;40.03;;;;;;;8.72;90.09;98451.06;2469233;29;20055;-83
2024/03/30 01:43:41;;;;;;;157.60;42.47;;;;;;;8.74;89.93;98451.00;2463423;28;20025;-82
2024/03/30 01:44:54;;;;;;;125.35;39.67;;;;;;;8.75;90.09;98457.88;2460525;29;20052;-83
2024/03/30 01:46:07;;;;;;;214.98;50.85;;;;;;;8.76;90.07;98445.75;2472615;28;20050;-82
2024/03/30 01:47:22;;;;;;;132.55;38.75;;;;;;;8.74;89.98;98454.44;2463545;28;20079;-81
2024/03/30 01:48:35;;;;;;;153.07;46.35;;;;;;;8.73;89.86;98444.94;2475944;29;20133;-82
2024/03/30 01:49:49;;;;;;;171.73;46.13;;;;;;;8.75;89.93;98442.28;2466541;29;20175;-81
2024/03/30 01:51:03;;;;;;;143.15;41.55;;;;;;;8.73;89.82;98454.50;2463885;28;20035;-82
2024/03/30 01:52:19;;;;;;;171.90;49.08;;;;;;;8.73;89.88;98452.75;2467790;29;20751;-82
2024/03/30 01:53:33;;;;;;;120.60;39.08;;;;;;;8.71;89.97;98446.75;2464009;29;20020;-81
2024/03/30 01:54:46;;;;;;;212.73;51.33;;;;;;;8.71;89.84;98436.34;2460835;29;20115;-81
2024/03/30 01:56:00;;;;;;;127.68;37.55;;;;;;;8.71;89.82;98443.31;2464214;29;20037;-82
2024/03/30 01:57:14;;;;;;;150.10;41.35;;;;;;;8.70;90.05;98442.47;2467648;29;20146;-81
2024/03/30 01:58:28;;;;;;;140.07;43.30;;;;;;;8.71;89.91;98451.94;2463464;29;20044;-81
2024/03/30 01:59:41;;;;;;;168.98;48.60;;;;;;;8.73;89.92;98444.94;2467085;29;20043;-80
2024/03/30 02:00:55;;;;;;;125.78;40.05;;;;;;;8.73;89.94;98446.72;2467605;29;20099;-81
2024/03/30 02:02:10;;;;;;;151.02;43.10;;;;;;;8.76;89.97;98445.75;2467278;29;20579;-81
2024/03/30 02:03:24;;;;;;;127.00;39.88;;;;;;;8.77;90.07;98444.84;2467797;28;20128;-81
2024/03/30 02:04:38;;;;;;;153.45;45.05;;;;;;;8.78;90.03;98441.31;2472937;28;20024;-81
2024/03/30 02:05:53;;;;;;;147.43;44.63;;;;;;;8.78;90.02;98441.31;2468920;29;20040;-80
2024/03/30 02:07:07;;;;;;;170.13;45.75;;;;;;;8.77;90.16;98452.63;2468842;29;20034;-80
2024/03/30 02:08:22;;;;;;;163.35;44.53;;;;;;;8.76;89.99;98440.56;2466681;29;20027;-82
2024/03/30 02:09:36;;;;;;;187.13;46.38;;;;;;;8.74;90.09;98436.22;2466765;29;20111;-80
2024/03/30 02:10:50;;;;;;;165.70;47.33;;;;;;;8.73;89.76;98442.34;2466733;29;20066;-81
2024/03/30 02:12:03;;;;;;;151.02;44.53;;;;;;;8.73;90.01;98444.09;2467541;29;20028;-81
2024/03/30 02:13:17;;;;;;;133.88;41.17;;;;;;;8.72;90.11;98440.66;2456713;29;20075;-81
2024/03/30 02:14:30;;;;;;;168.70;42.78;;;;;;;8.73;90.12;98437.16;2453364;29;20116;-83
2024/03/30 02:15:43;;;;;;;152.93;47.67;;;;;;;8.73;90.08;98434.56;2456983;29;20024;-82
2024/03/30 02:16:57;;;;;;;141.93;45.13;;;;;;;8.72;90.03;98437.19;2459893;29;20030;-81
2024/03/30 02:18:10;;;;;;;181.40;48.70;;;;;;;8.69;90.04;98426.91;2465759;29;20032;-82
2024/03/30 02:19:24;;;;;;;124.22;41.25;;;;;;;8.66;89.86;98443.47;2469041;29;20421;-80
2024/03/30 02:20:37;;;;;;;178.75;48.63;;;;;;;8.64;89.56;98429.66;2466527;29;20024;-82
2024/03/30 02:21:52;;;;;;;111.85;38.17;;;;;;;8.63;89.90;98441.00;2472778;28;20047;-81
2024/03/30 02:23:05;;;;;;;190.55;50.17;;;;;;;8.60;89.91;98438.50;2473228;28;20074;-80
2024/03/30 02:24:19;;;;;;;169.05;51.30;;;;;;;8.61;89.99;98439.34;2469225;29;20445;-80
2024/03/30 02:25:32;;;;;;;127.40;41.55;;;;;;;8.61;89.85;98439.34;2466796;29;20090;-81
2024/03/30 02:26:45;;;;;;;134.70;39.58;;;;;;;8.60;89.81;98443.72;2473016;29;20040;-81
2024/03/30 02:27:58;;;;;;;149.32;44.90;;;;;;;8.60;89.78;98442.88;2473194;29;20493;-81
2024/03/30 02:29:12;;;;;;;175.48;47.42;;;;;;;8.59;89.87;98446.34;2473183;29;20031;-81
2024/03/30 02:30:28;;;;;;;118.10;38.25;;;;;;;8.55;89.62;98440.41;2462851;28;20033;-80
2024/03/30 02:31:41;;;;;;;128.50;38.70;;;;;;;8.54;89.87;98453.47;2465867;29;20096;-81
2024/03/30 02:32:56;;;;;;;213.60;55.13;;;;;;;8.51;89.76;98452.66;2471272;29;20080;-82
2024/03/30 02:34:09;;;;;;;100.38;37.80;;;;;;;8.50;89.73;98444.94;2456669;28;20048;-82
2024/03/30 02:35:22;;;;;;;123.53;42.05;;;;;;;8.51;89.55;98444.03;2463041;29;20032;-81
2024/03/30 02:36:36;;;;;;;102.88;37.65;;;;;;;8.51;89.75;98446.63;2465678;29;20472;-81
2024/03/30 02:37:50;;;;;;;125.55;35.75;;;;;;;8.51;89.76;98439.66;2466300;29;20432;-80
2024/03/30 02:39:03;;;;;;;99.00;34.83;;;;;;;8.51;89.90;98454.41;2471772;29;20043;-80
2024/03/30 02:40:16;;;;;;;116.20;37.72;;;;;;;8.52;89.94;98453.53;2466436;29;20055;-82
2024/03/30 02:41:29;;;;;;;140.77;39.55;;;;;;;8.50;89.91;98445.78;2466624;29;20052;-83
2024/03/30 02:42:42;;;;;;;145.63;41.13;;;;;;;8.50;89.84;98452.72;2465640;28;20037;-81
2024/03/30 02:43:56;;;;;;;141.82;40.33;;;;;;;8.48;89.59;98454.53;2462617;29;20020;-82
2024/03/30 02:45:11;;;;;;;92.93;33.25;;;;;;;8.46;89.89;98445.94;2473681;29;20030;-82
2024/03/30 02:46:24;;;;;;;125.63;36.53;;;;;;;8.46;89.78;98438.13;2484523;28;20036;-82
2024/03/30 02:47:38;;;;;;;84.03;31.70;;;;;;;8.43;89.98;98439.09;2472338;29;20028;-81
2024/03/30 02:48:51;;;;;;;96.97;31.48;;;;;;;8.43;89.74;98435.66;2474778;29;20151;-83
2024/03/30 02:50:05;;;;;;;112.63;34.17;;;;;;;8.42;89.72;98429.59;2461810;29;20033;-82
2024/03/30 02:51:19;;;;;;;126.75;33.88;;;;;;;8.41;89.62;98429.66;2461134;29;20020;-80
2024/03/30 02:52:32;;;;;;;87.90;30.60;;;;;;;8.39;89.64;98426.22;2462686;29;20047;-81
2024/03/30 02:53:45;;;;;;;95.38;31.30;;;;;;;8.37;89.74;98428.03;2462969;29;20024;-81
2024/03/30 02:54:58;;;;;;;135.65;34.67;;;;;;;8.36;89.84;98427.19;2473221;29;20453;-81
2024/03/30 02:56:12;;;;;;;114.72;29.10;;;;;;;8.34;89.67;98421.22;2473159;29;20098;-81
2024/03/30 02:57:25;;;;;;;118.43;32.22;;;;;;;8.32;89.70;98414.38;2472506;29;20039;-82
2024/03/30 02:58:38;;;;;;;130.30;32.90;;;;;;;8.29;89.73;98415.31;2471909;29;20081;-79
2024/03/30 02:59:52;;;;;;;103.28;26.77;;;;;;;8.27;89.84;98415.38;2472597;29;20051;-81
2024/03/30 03:01:05;;;;;;;109.88;29.50;;;;;;;8.24;89.75;98414.63;2473125;29;20036;-81
2024/03/30 03:02:18;;;;;;;90.35;25.30;;;;;;;8.21;89.55;98410.38;2472224;29;20060;-80
2024/03/30 03:03:31;;;;;;;85.20;23.55;;;;;;;8.16;89.53;98411.44;2471434;29;20030;-81
2024/03/30 03:04:45;;;;;;;97.50;25.10;;;;;;;8.13;89.49;98417.63;2473534;28;20020;-82
2024/03/30 03:05:59;;;;;;;185.88;31.05;;;;;;;8.09;89.45;98418.59;2471714;29;20131;-81
2024/03/30 03:07:12;;;;;;;108.00;23.65;;;;;;;8.03;89.53;98421.41;2457093;29;20473;-82
2024/03/30 03:08:27;;;;;;;105.32;27.15;;;;;;;8.00;89.43;98418.91;2456635;29;20039;-82
2024/03/30 03:09:40;;;;;;;118.72;25.70;;;;;;;7.96;89.63;98415.56;2469435;28;20119;-83
2024/03/30 03:10:54;;;;;;;89.88;22.38;;;;;;;7.94;89.69;98416.53;2479062;29;20533;-81
2024/03/30 03:12:07;;;;;;;89.47;22.98;;;;;;;7.93;89.72;98420.88;2474609;29;20411;-81
2024/03/30 03:13:21;;;;;;;76.90;21.55;;;;;;;7.93;89.63;98412.25;2458892;29;20063;-82
2024/03/30 03:14:35;;;;;;;106.60;26.67;;;;;;;7.92;89.56;98419.16;2464128;28;20020;-82
2024/03/30 03:15:49;;;;;;;97.68;23.27;;;;;;;7.89;89.66;98418.44;2466614;28;20109;-82
2024/03/30 03:17:02;;;;;;;109.78;24.02;;;;;;;7.86;89.68;98420.22;2479217;28;20025;-83
2024/03/30 03:18:15;;;;;;;82.68;22.45;;;;;;;7.85;89.57;98425.50;2464180;29;20033;-82
2024/03/30 03:19:28;;;;;;;71.68;22.63;;;;;;;7.85;89.64;98423.72;2463054;28;20024;-82
2024/03/30 03:20:42;;;;;;;100.07;24.70;;;;;;;7.86;89.74;98417.63;2469694;28;20024;-82
2024/03/30 03:21:55;;;;;;;138.77;24.88;;;;;;;7.83;90.20;98425.53;2471318;29;20119;-82
2024/03/30 03:23:08;;;;;;;97.95;22.50;;;;;;;7.82;89.78;98429.03;2472345;29;20436;-82
2024/03/30 03:24:22;;;;;;;91.85;22.10;;;;;;;7.80;89.86;98420.44;2468983;29;20513;-82
2024/03/30 03:25:35;;;;;;;84.15;19.23;;;;;;;7.83;89.98;98435.06;2474813;29;20027;-82
2024/03/30 03:26:49;;;;;;;102.13;23.90;;;;;;;7.83;90.14;98438.50;2479770;29;20028;-83
2024/03/30 03:28:02;;;;;;;102.78;23.15;;;;;;;7.85;89.97;98439.31;2474301;29;20040;-83
2024/03/30 03:29:15;;;;;;;124.15;25.40;;;;;;;7.86;89.91;98435.81;2473805;28;20024;-82
2024/03/30 03:30:32;;;;;;;121.00;23.08;;;;;;;7.86;89.96;98438.41;2479617;29;20036;-79
2024/03/30 03:31:45;;;;;;;164.98;26.85;;;;;;;7.84;90.07;98427.22;2470139;29;20017;-80
2024/03/30 03:33:00;;;;;;;137.70;24.65;;;;;;;7.83;90.15;98435.91;2472980;28;20031;-81
2024/03/30 03:34:13;;;;;;;84.18;21.08;;;;;;;7.82;89.96;98436.81;2491279;28;20054;-81
2024/03/30 03:35:26;;;;;;;181.18;30.05;;;;;;;7.81;89.94;98432.50;2485344;29;20036;-80
2024/03/30 03:36:41;;;;;;;145.20;23.10;;;;;;;7.79;90.03;98439.50;2471860;29;20505;-80
2024/03/30 03:37:54;;;;;;;110.40;22.13;;;;;;;7.77;90.09;98441.31;2473494;28;20032;-81
2024/03/30 03:39:08;;;;;;;122.10;26.63;;;;;;;7.77;90.12;98438.72;2473917;29;20032;-79
2024/03/30 03:40:21;;;;;;;78.07;20.42;;;;;;;7.77;89.88;98433.53;2464485;29;20029;-79
2024/03/30 03:41:34;;;;;;;91.32;21.00;;;;;;;7.79;90.23;98429.09;2499593;28;20090;-80
2024/03/30 03:42:47;;;;;;;101.15;22.77;;;;;;;7.78;90.19;98434.38;2485824;28;20038;-80
2024/03/30 03:44:00;;;;;;;95.93;21.20;;;;;;;7.79;90.16;98431.69;2476813;28;20429;-81
2024/03/30 03:45:14;;;;;;;107.38;23.35;;;;;;;7.79;90.23;98433.47;2476672;28;20050;-79
2024/03/30 03:46:27;;;;;;;89.07;21.52;;;;;;;7.80;90.19;98430.81;2479006;29;20425;-80
2024/03/30 03:47:40;;;;;;;95.70;23.48;;;;;;;7.82;90.14;98438.53;2481251;28;20034;-79
2024/03/30 03:48:53;;;;;;;150.98;29.10;;;;;;;7.81;90.04;98436.84;2473561;29;20028;-79
2024/03/30 03:50:07;;;;;;;128.00;21.67;;;;;;;7.80;90.07;98437.78;2478411;28;20033;-80
2024/03/30 03:51:20;;;;;;;98.88;25.90;;;;;;;7.79;90.19;98438.66;2509097;28;20026;-79
2024/03/30 03:52:33;;;;;;;95.75;23.38;;;;;;;7.79;90.18;98430.84;2497372;28;20027;-79
2024/03/30 03:53:47;;;;;;;97.00;20.42;;;;;;;7.80;90.22;98436.00;2480557;28;20076;-79
2024/03/30 03:55:00;;;;;;;91.47;23.65;;;;;;;7.80;90.02;98438.63;2480342;28;20047;-81
2024/03/30 03:56:13;;;;;;;105.75;24.27;;;;;;;7.80;90.13;98435.19;2480602;28;20020;-80
2024/03/30 03:57:26;;;;;;;99.75;24.15;;;;;;;7.79;90.28;98439.50;2466540;29;20023;-80
2024/03/30 03:58:39;;;;;;;90.60;25.08;;;;;;;7.81;90.12;98431.66;2473774;29;20536;-80
2024/03/30 03:59:54;;;;;;;68.10;21.48;;;;;;;7.82;90.12;98434.22;2474009;28;20612;-80
2024/03/30 04:01:07;;;;;;;92.32;25.75;;;;;;;7.83;90.09;98432.47;2474298;28;20504;-81
2024/03/30 04:02:20;;;;;;;103.65;25.17;;;;;;;7.83;90.15;98437.66;2474605;28;20075;-80
2024/03/30 04:03:36;;;;;;;77.28;23.77;;;;;;;7.82;90.01;98434.22;2480934;29;20036;-82
2024/03/30 04:04:52;;;;;;;67.32;23.25;;;;;;;7.83;90.06;98440.25;2471476;29;20032;-82
2024/03/30 04:06:09;;;;;;;90.72;25.02;;;;;;;7.81;90.27;98432.50;2476815;28;20580;-81
2024/03/30 04:07:22;;;;;;;105.05;25.88;;;;;;;7.80;90.08;98435.19;2507070;28;20026;-79
2024/03/30 04:08:35;;;;;;;114.30;26.63;;;;;;;7.76;90.05;98439.59;2486730;28;20095;-79
2024/03/30 04:09:52;;;;;;;84.75;23.80;;;;;;;7.72;90.00;98443.22;2474151;29;20055;-80
2024/03/30 04:11:06;;;;;;;87.28;24.63;;;;;;;7.71;89.89;98451.88;2466355;29;20045;-79
2024/03/30 04:12:19;;;;;;;117.75;26.67;;;;;;;7.70;90.01;98441.56;2463539;29;20028;-80
2024/03/30 04:13:34;;;;;;;97.88;24.67;;;;;;;7.68;90.03;98446.78;2478101;29;20028;-79
2024/03/30 04:14:47;;;;;;;107.47;28.10;;;;;;;7.65;89.94;98455.53;2478228;29;20036;-80
2024/03/30 04:16:05;;;;;;;92.93;27.65;;;;;;;7.66;89.90;98451.19;2468901;29;20035;-79
2024/03/30 04:17:18;;;;;;;84.63;24.40;;;;;;;7.66;90.20;98456.38;2472111;28;20028;-80
2024/03/30 04:18:32;;;;;;;104.80;25.05;;;;;;;7.64;90.13;98459.03;2480677;29;20123;-79
2024/03/30 04:19:45;;;;;;;74.40;24.08;;;;;;;7.64;89.63;98458.16;2475492;28;20024;-80
2024/03/30 04:21:04;;;;;;;87.55;25.30;;;;;;;7.65;90.22;98455.53;2468194;29;20514;-80
2024/03/30 04:22:18;;;;;;;100.85;25.65;;;;;;;7.63;89.96;98459.06;2470671;28;20040;-80
2024/03/30 04:23:32;;;;;;;113.60;28.65;;;;;;;7.60;90.07;98459.19;2488464;28;20419;-79
2024/03/30 04:24:45;;;;;;;94.80;26.80;;;;;;;7.61;89.97;98461.69;2520245;28;20033;-80
2024/03/30 04:26:00;;;;;;;85.97;24.95;;;;;;;7.61;90.05;98461.69;2465064;29;20475;-80
2024/03/30 04:27:14;;;;;;;128.32;29.88;;;;;;;7.62;89.91;98457.38;2489435;29;20076;-80
2024/03/30 04:28:27;;;;;;;95.50;25.35;;;;;;;7.63;90.21;98464.25;2477110;28;20043;-79
2024/03/30 04:29:40;;;;;;;83.13;23.70;;;;;;;7.62;90.18;98463.41;2470842;28;20036;-80
2024/03/30 04:30:58;;;;;;;135.07;30.52;;;;;;;7.62;90.24;98459.97;2487108;28;20206;-80
2024/03/30 04:32:11;;;;;;;152.95;32.35;;;;;;;7.62;90.15;98459.97;2475893;29;20115;-80
2024/03/30 04:33:24;;;;;;;120.25;28.67;;;;;;;7.63;90.08;98461.66;2475578;28;20024;-80
2024/03/30 04:34:40;;;;;;;113.68;28.85;;;;;;;7.64;90.27;98468.53;2459834;28;20510;-80
2024/03/30 04:35:58;;;;;;;94.88;26.10;;;;;;;7.66;90.14;98466.75;2473685;29;20028;-80
2024/03/30 04:37:11;;;;;;;96.63;27.67;;;;;;;7.68;90.17;98469.31;2466079;29;20028;-80
2024/03/30 04:38:25;;;;;;;84.32;26.25;;;;;;;7.71;90.28;98464.88;2469136;28;20532;-81
2024/03/30 04:39:41;;;;;;;108.88;27.77;;;;;;;7.74;90.29;98469.94;2476848;28;20087;-80
2024/03/30 04:41:07;;;;;;;93.47;26.33;;;;;;;7.77;90.42;98458.63;2472059;29;20020;-81
2024/03/30 04:42:21;;;;;;;122.63;27.77;;;;;;;7.79;90.40;98462.03;2462416;29;20033;-82
2024/03/30 04:43:35;;;;;;;100.15;26.63;;;;;;;7.80;90.48;98456.78;2462245;29;20024;-81
2024/03/30 04:44:49;;;;;;;125.07;29.65;;;;;;;7.83;90.29;98464.47;2470551;29;20023;-80
2024/03/30 04:46:04;;;;;;;98.15;26.48;;;;;;;7.85;90.24;98460.09;2492199;28;20071;-82
2024/03/30 04:47:17;;;;;;;123.18;31.27;;;;;;;7.86;90.31;98469.56;2465373;29;20088;-81
2024/03/30 04:48:31;;;;;;;173.23;32.65;;;;;;;7.83;90.37;98464.47;2472187;29;20520;-83
2024/03/30 04:49:44;;;;;;;100.30;26.52;;;;;;;7.82;90.18;98467.09;2476774;28;20022;-82
2024/03/30 04:51:01;;;;;;;175.73;32.72;;;;;;;7.82;90.31;98464.50;2476182;28;20031;-83
2024/03/30 04:52:15;;;;;;;132.48;29.88;;;;;;;7.82;90.33;98464.50;2479907;29;20047;-82
2024/03/30 04:53:32;;;;;;;102.13;28.30;;;;;;;7.81;90.24;98455.88;2473917;29;20055;-82
2024/03/30 04:54:45;;;;;;;90.30;25.17;;;;;;;7.80;90.52;98451.59;2470461;28;20029;-82
2024/03/30 04:56:00;;;;;;;91.32;25.63;;;;;;;7.80;90.14;98456.78;2469972;29;20476;-80
2024/03/30 04:57:14;;;;;;;103.90;25.67;;;;;;;7.81;90.09;98458.47;2476427;29;20079;-82
2024/03/30 04:58:29;;;;;;;88.70;25.10;;;;;;;7.83;90.22;98466.22;2462013;29;20091;-82
2024/03/30 04:59:42;;;;;;;104.07;27.58;;;;;;;7.84;90.38;98458.38;2468634;29;20024;-80
2024/03/30 05:01:03;;;;;;;137.63;31.70;;;;;;;7.85;90.18;98464.44;2465551;29;20106;-82
2024/03/30 05:02:16;;;;;;;107.72;25.95;;;;;;;7.86;90.40;98459.19;2463956;29;20043;-82
2024/03/30 05:03:30;;;;;;;148.60;33.08;;;;;;;7.87;90.24;98457.41;2460034;29;20020;-82
2024/03/30 05:04:43;;;;;;;157.82;30.33;;;;;;;7.88;90.25;98458.28;2481091;28;20334;-82
2024/03/30 05:05:57;;;;;;;136.32;29.67;;;;;;;7.89;90.15;98452.19;2487343;29;20046;-82
2024/03/30 05:07:10;;;;;;;172.85;32.70;;;;;;;7.89;90.19;98444.41;2480705;29;20008;-80
2024/03/30 05:08:23;;;;;;;177.05;31.83;;;;;;;7.89;90.05;98442.66;2483642;29;20035;-79
2024/03/30 05:09:37;;;;;;;206.85;36.22;;;;;;;7.89;90.34;98440.03;2461870;29;20032;-82
2024/03/30 05:10:53;;;;;;;115.07;27.63;;;;;;;7.89;90.27;98432.25;2470692;29;20520;-82
2024/03/30 05:12:06;;;;;;;174.75;35.33;;;;;;;7.90;90.26;98427.91;2467742;28;20031;-81
2024/03/30 05:13:20;;;;;;;161.35;30.40;;;;;;;7.92;90.29;98433.91;2470520;29;20110;-81
2024/03/30 05:14:33;;;;;;;148.38;32.75;;;;;;;7.93;90.32;98427.81;2475956;28;20032;-82
2024/03/30 05:15:47;;;;;;;164.68;33.88;;;;;;;7.96;90.33;98427.72;2479326;29;20078;-80
2024/03/30 05:17:00;;;;;;;93.45;26.40;;;;;;;7.96;90.18;98430.31;2470359;28;20036;-82
2024/03/30 05:18:15;;;;;;;163.90;29.83;;;;;;;7.98;90.14;98436.31;2475499;29;20044;-83
2024/03/30 05:21:01;;;;;;;207.50;34.28;;;;;;;8.01;90.43;98428.41;2479877;28;20082;-82
2024/03/30 05:22:15;;;;;;;137.57;28.10;;;;;;;8.02;90.20;98425.75;2479057;29;20036;-83
2024/03/30 05:23:29;;;;;;;120.18;29.30;;;;;;;8.05;90.43;98420.47;2477854;29;20035;-82
2024/03/30 05:24:42;;;;;;;165.82;31.10;;;;;;;8.07;90.40;98416.03;2466676;29;20714;-82
2024/03/30 05:25:58;;;;;;;172.75;34.90;;;;;;;8.12;90.37;98415.91;2464448;29;20032;-82
2024/03/30 05:27:11;;;;;;;141.88;31.98;;;;;;;8.14;90.42;98413.25;2466451;29;20029;-82
2024/03/30 05:28:27;;;;;;;113.50;27.08;;;;;;;8.15;90.39;98413.19;2479460;29;20489;-81
2024/03/30 05:29:40;;;;;;;115.38;29.13;;;;;;;8.17;90.37;98419.19;2470549;29;20021;-83
2024/03/30 05:30:55;;;;;;;131.23;27.88;;;;;;;8.21;90.70;98414.72;2481855;28;20026;-82
2024/03/30 05:32:08;;;;;;;179.85;31.42;;;;;;;8.22;90.66;98411.22;2467130;28;20104;-81
2024/03/30 05:33:23;;;;;;;122.85;31.20;;;;;;;8.22;90.50;98419.88;2472848;29;20027;-81
2024/03/30 05:34:36;;;;;;;172.07;31.08;;;;;;;8.25;90.41;98419.75;2464905;28;20428;-80
2024/03/30 05:35:51;;;;;;;164.45;32.45;;;;;;;8.26;90.35;98413.69;2462957;29;20063;-82
2024/03/30 05:37:04;;;;;;;185.93;34.72;;;;;;;8.25;90.62;98411.97;2468953;29;20040;-81
2024/03/30 05:38:18;;;;;;;140.95;30.23;;;;;;;8.25;90.82;98416.31;2469307;29;20036;-82
2024/03/30 05:39:32;;;;;;;119.25;28.95;;;;;;;8.27;90.65;98410.16;2459606;29;20025;-82
2024/03/30 05:40:46;;;;;;;137.15;30.42;;;;;;;8.31;90.67;98410.91;2459330;28;20101;-81
2024/03/30 05:41:59;;;;;;;175.48;35.88;;;;;;;8.33;90.62;98411.69;2455256;29;20041;-81